TFM - Tactical Decision Aid
ID: Runway Winds: CIG/VIS Threshold:

KJFK - New York/Kennedy Int, NY, US

Updated at: 1214 UTC 15 Jul 2020
Latest TAF at: 1140 UTC 15 Jul 2020

TAF Board

Time1151Z 15/13Z 15/14Z 15/15Z 15/16Z 15/17Z 15/18Z 15/19Z 15/20Z 15/21Z 15/22Z 15/23Z 16/00Z 16/01Z>>
Type OBS PRVL PRVL PRVL PRVL PRVL PRVL PRVL PRVL PRVL PRVL PRVL PRVL PRVL
VIS 10 >6 >6 >6 >6 >6 >6 >6 >6 >6 >6 >6 >6 >6
CIG 250 20 20 50 50 250 250 -- -- -- -- -- -- --
Cover BKN BKN BKN BKN BKN BKN BKN SCT SCT SCT SCT SCT SCT SCT
FltCat VFR MVFR MVFR VFR VFR VFR VFR VFR VFR VFR VFR VFR VFR VFR
WX -- -- -- -- -- -- -- -- -- -- -- -- -- --
WDir 90 90 90 110 110 130 130 150 150 150 150 150 150 150
WSpd 8 7 7 8 8 9 9 10 10 10 10 10 10 10
WGst -- -- -- -- -- -- -- -- -- -- -- -- -- --

TDA Impact Legend

  None Marginal Slight Moderate High
Visibility (sm) >5 3≤X≤5 1≤X<3 0.5≤X<1 <0.5
Ceiling (100 ft) >30 10≤X≤30 4≤X<10 2≤X<4 <2
Wind Speed (kt) <15 15≤X<25 25≤X<30 ≥30
Wind Gust (kt) <15 15≤X<25 25≤X<35 ≥35
Weather No Wx Reported VCTS -TS,-FZRA TS,FZRA +TS,+FZRA
TAF
KJFK 151140Z 1512/1618 09007KT P6SM BKN020 BKN035 BKN250
  FM151500 11008KT P6SM SCT020 BKN050 BKN250
  FM151700 13009KT P6SM SCT050 BKN250
  FM151900 15010KT P6SM SCT050 SCT250
  FM160200 13006KT P6SM SCT020 SCT050
  FM160600 13005KT P6SM SCT025 BKN040
  FM161600 14009KT P6SM FEW025 SCT030 BKN050


METAR
KJFK 151151Z 09008KT 10SM SCT020 BKN250 23/18 A3016 RMK AO2 SLP213 T02330183 10233 20211 51014
KJFK 151117Z 08007KT 10SM SCT019 BKN250 22/19 A3015 RMK AO2 T02220189
KJFK 151051Z 07007KT 10SM FEW012 BKN020 BKN250 22/19 A3015 RMK AO2 SLP209 T02170194
KJFK 151018Z 06007KT 10SM FEW012 BKN017 BKN250 22/19 A3015 RMK AO2 T02170194
KJFK 150951Z 06004KT 10SM SCT016 BKN250 21/19 A3014 RMK AO2 SLP205 T02110189
KJFK 150944Z 05005KT 10SM SCT014 BKN250 21/19 A3013 RMK AO2 T02110189
KJFK 150851Z 06005KT 10SM BKN013 BKN250 22/19 A3012 RMK AO2 SLP199 T02170194 53018

Radar Display
Forecast Discussion